createdAt,value
2023-03-15T00:02:15.020Z,84880.13
2023-03-15T00:04:42.021Z,84880.06
2023-03-15T00:07:09.126Z,84912.81
2023-03-15T00:09:36.115Z,84903.34
2023-03-15T00:12:03.209Z,84899.13
2023-03-15T00:14:30.274Z,84876.66
2023-03-15T00:16:57.442Z,84870.50
2023-03-15T00:19:24.559Z,84888.31
2023-03-15T00:21:51.501Z,84895.78
2023-03-15T00:24:18.637Z,84879.44
2023-03-15T00:26:45.712Z,84816.66
2023-03-15T00:29:12.860Z,84806.41
2023-03-15T00:31:39.946Z,84883.38
2023-03-15T00:34:06.968Z,84877.22
2023-03-15T00:36:33.923Z,84847.97
2023-03-15T00:39:00.913Z,84832.25
2023-03-15T00:41:27.960Z,84822.03
2023-03-15T00:43:54.910Z,84866.25
2023-03-15T00:46:21.943Z,84855.31
2023-03-15T00:48:50.610Z,84869.00
2023-03-15T00:51:21.564Z,84769.47
2023-03-15T00:53:50.182Z,84851.16
2023-03-15T00:56:20.818Z,84835.44
2023-03-15T00:58:48.406Z,84838.84
2023-03-15T01:01:21.337Z,84847.00
2023-03-15T01:03:48.929Z,84864.13
2023-03-15T01:06:18.340Z,84857.97
2023-03-15T01:08:47.575Z,84827.25
2023-03-15T01:11:17.915Z,84793.81
2023-03-15T01:13:44.938Z,84823.13
2023-03-15T01:16:14.424Z,84827.91
2023-03-15T01:18:42.886Z,84831.94
2023-03-15T01:21:12.678Z,84830.56
2023-03-15T01:23:39.928Z,84827.91
2023-03-15T01:26:10.431Z,84829.91
2023-03-15T01:28:37.583Z,84825.81
2023-03-15T01:31:05.086Z,84815.50
2023-03-15T01:33:32.379Z,84801.88
2023-03-15T01:36:05.078Z,84771.88
2023-03-15T01:38:34.081Z,84792.28
2023-03-15T01:41:01.799Z,84765.16
2023-03-15T01:43:32.132Z,84803.22
2023-03-15T01:45:59.630Z,84809.50
2023-03-15T01:48:51.869Z,84810.19
2023-03-15T01:51:32.980Z,84817.09
2023-03-15T01:54:08.499Z,84784.41
2023-03-15T01:56:40.005Z,84805.47
2023-03-15T01:59:11.967Z,84753.06
2023-03-15T02:01:45.785Z,84793.97
2023-03-15T02:04:18.886Z,84786.50
2023-03-15T02:06:48.170Z,84804.91
2023-03-15T02:09:18.704Z,84777.00
2023-03-15T02:11:48.091Z,84790.59
2023-03-15T02:14:17.189Z,84807.59
2023-03-15T02:16:45.236Z,84773.50
2023-03-15T02:19:48.973Z,84693.84
2023-03-15T02:22:41.017Z,84797.38
2023-03-15T02:25:20.891Z,84788.50
2023-03-15T02:27:48.284Z,84773.50
2023-03-15T02:30:15.666Z,84736.09
2023-03-15T02:32:42.773Z,84785.78
2023-03-15T02:35:09.904Z,84787.88
2023-03-15T02:37:46.050Z,84742.19
2023-03-15T02:40:19.521Z,84784.47
2023-03-15T02:42:48.608Z,84755.94
2023-03-15T02:45:15.737Z,84742.94
2023-03-15T02:47:44.685Z,84776.94
2023-03-15T02:50:11.970Z,84794.09
2023-03-15T02:52:39.502Z,84719.78
2023-03-15T02:55:07.152Z,84738.84
2023-03-15T02:57:35.794Z,84669.34
2023-03-15T03:00:13.340Z,84738.72
2023-03-15T03:02:42.489Z,84761.19
2023-03-15T03:05:13.361Z,84758.53
2023-03-15T03:07:43.004Z,84713.53
2023-03-15T03:10:16.235Z,84704.03
2023-03-15T03:12:53.712Z,84747.66
2023-03-15T03:15:27.712Z,84689.16
2023-03-15T03:17:54.747Z,84703.31
2023-03-15T03:20:23.582Z,84710.13
2023-03-15T03:22:50.562Z,84623.59
2023-03-15T03:25:18.524Z,84668.53
2023-03-15T03:27:47.723Z,84688.94
2023-03-15T03:30:15.981Z,84717.50
2023-03-15T03:32:48.670Z,84654.94
2023-03-15T03:35:16.298Z,84708.00
2023-03-15T03:37:43.558Z,84684.81
2023-03-15T03:40:18.172Z,84676.66
2023-03-15T03:42:45.539Z,84672.59
2023-03-15T03:45:12.987Z,84711.34
2023-03-15T03:47:43.388Z,84712.03
2023-03-15T03:50:12.058Z,84688.28
2023-03-15T03:52:39.811Z,84659.00
2023-03-15T03:55:15.049Z,84637.16
2023-03-15T03:57:43.811Z,84701.09
2023-03-15T04:00:16.425Z,84668.38
2023-03-15T04:02:43.942Z,84677.16
2023-03-15T04:05:13.872Z,84695.50
2023-03-15T04:07:41.717Z,84624.09
2023-03-15T04:10:14.941Z,84658.75
2023-03-15T04:12:45.535Z,84636.31
2023-03-15T04:15:14.115Z,84675.84
2023-03-15T04:17:41.673Z,84666.19
2023-03-15T04:20:13.144Z,84622.00
2023-03-15T04:22:49.739Z,84643.09
2023-03-15T04:25:39.707Z,84660.81
2023-03-15T04:28:32.771Z,84628.81
2023-03-15T04:31:15.028Z,84656.69
2023-03-15T04:33:57.229Z,84649.88
2023-03-15T04:37:02.585Z,84638.38
2023-03-15T04:39:39.260Z,84665.53
2023-03-15T04:42:26.286Z,84664.13
2023-03-15T04:45:12.674Z,84634.22
2023-03-15T04:47:58.558Z,84594.75
2023-03-15T04:50:51.175Z,84649.16
2023-03-15T04:53:40.005Z,84658.00
2023-03-15T04:56:18.844Z,84631.47
2023-03-15T04:59:05.367Z,84661.47
2023-03-15T05:01:50.962Z,84635.59
2023-03-15T05:04:21.783Z,84655.94
2023-03-15T05:06:55.827Z,84603.00
2023-03-15T05:09:52.355Z,84660.13
2023-03-15T05:12:25.481Z,84576.44
2023-03-15T05:15:13.999Z,84609.78
2023-03-15T05:17:59.531Z,84615.16
2023-03-15T05:20:40.936Z,84627.38
2023-03-15T05:23:17.247Z,84603.53
2023-03-15T05:26:03.874Z,84620.44
2023-03-15T05:28:49.337Z,84653.78
2023-03-15T05:31:45.190Z,84651.63
2023-03-15T05:34:32.476Z,84622.94
2023-03-15T05:37:00.101Z,84610.63
2023-03-15T05:39:35.216Z,84586.06
2023-03-15T05:42:14.292Z,84644.44
2023-03-15T05:45:01.458Z,84655.34
2023-03-15T05:47:47.126Z,84653.88
2023-03-15T05:50:28.402Z,84637.47
2023-03-15T05:53:14.201Z,84626.56
2023-03-15T05:56:10.244Z,84638.66
2023-03-15T05:58:55.599Z,84623.66
2023-03-15T06:01:41.079Z,84568.66
2023-03-15T06:04:30.835Z,84646.13
2023-03-15T06:06:58.694Z,84633.78
2023-03-15T06:09:25.961Z,84654.72
2023-03-15T06:11:53.790Z,84643.13
2023-03-15T06:14:21.794Z,84607.00
2023-03-15T06:16:52.019Z,84568.13
2023-03-15T06:19:20.331Z,84639.34
2023-03-15T06:21:48.224Z,84641.97
2023-03-15T06:24:25.339Z,84599.88
2023-03-15T06:26:56.494Z,84602.41
2023-03-15T06:29:24.144Z,84650.00
2023-03-15T06:31:53.772Z,84595.81
2023-03-15T06:34:21.379Z,84598.44
2023-03-15T06:36:49.952Z,84602.97
2023-03-15T06:39:17.259Z,84640.13
2023-03-15T06:41:44.448Z,84637.97
2023-03-15T06:44:17.428Z,84551.69
2023-03-15T06:46:46.072Z,84558.28
2023-03-15T06:49:13.106Z,84565.50
2023-03-15T06:51:42.976Z,84633.91
2023-03-15T06:54:10.041Z,84633.81
2023-03-15T06:56:37.547Z,84537.34
2023-03-15T06:59:05.271Z,84623.41
2023-03-15T07:01:32.394Z,84585.94
2023-03-15T07:03:59.481Z,84644.38
2023-03-15T07:06:28.407Z,84634.66
2023-03-15T07:08:55.548Z,84606.06
2023-03-15T07:11:22.626Z,84634.53
2023-03-15T07:13:49.900Z,84635.66
2023-03-15T07:16:16.974Z,84614.63
2023-03-15T07:18:44.172Z,84633.63
2023-03-15T07:21:11.210Z,84645.03
2023-03-15T07:23:38.285Z,84620.00
2023-03-15T07:26:05.365Z,84615.03
2023-03-15T07:28:32.832Z,84631.66
2023-03-15T07:31:02.712Z,84631.50
2023-03-15T07:33:32.280Z,84628.03
2023-03-15T07:36:00.459Z,84626.56
2023-03-15T07:38:31.173Z,84607.41
2023-03-15T07:40:58.802Z,84614.97
2023-03-15T07:43:25.868Z,84600.06
2023-03-15T07:46:07.002Z,84581.53
2023-03-15T07:48:34.155Z,84632.94
2023-03-15T07:51:01.076Z,84637.03
2023-03-15T07:53:28.650Z,84605.72
2023-03-15T07:55:56.031Z,84639.59
2023-03-15T07:58:23.279Z,84580.50
2023-03-15T08:00:50.654Z,84634.66
2023-03-15T08:03:17.820Z,84627.66
2023-03-15T08:05:44.708Z,84584.78
2023-03-15T08:08:11.761Z,84595.00
2023-03-15T08:10:38.883Z,84580.66
2023-03-15T08:13:06.054Z,84612.81
2023-03-15T08:15:33.055Z,84584.09
2023-03-15T08:18:00.412Z,84606.75
2023-03-15T08:20:29.632Z,84583.59
2023-03-15T08:22:57.279Z,84547.09
2023-03-15T08:25:25.234Z,84564.13
2023-03-15T08:27:53.095Z,84589.56
2023-03-15T08:30:21.628Z,84571.66
2023-03-15T08:32:50.191Z,84574.16
2023-03-15T08:35:17.808Z,84564.16
2023-03-15T08:37:48.156Z,84518.25
2023-03-15T08:40:19.252Z,84540.22
2023-03-15T08:42:46.573Z,84568.19
2023-03-15T08:45:13.555Z,84590.75
2023-03-15T08:47:40.635Z,84579.03
2023-03-15T08:50:13.873Z,84506.97
2023-03-15T08:52:41.352Z,84555.22
2023-03-15T08:55:09.216Z,84537.00
2023-03-15T08:57:36.290Z,84493.66
2023-03-15T09:00:24.059Z,84501.31
2023-03-15T09:02:52.419Z,84483.50
2023-03-15T09:05:21.248Z,84572.66
2023-03-15T09:07:48.921Z,84553.63
2023-03-15T09:10:17.477Z,84568.44
2023-03-15T09:12:47.090Z,84578.00
2023-03-15T09:15:15.205Z,84587.09
2023-03-15T09:17:42.970Z,84552.09
2023-03-15T09:20:16.962Z,84532.53
2023-03-15T09:22:49.676Z,84527.44
2023-03-15T09:25:16.785Z,84574.94
2023-03-15T09:27:43.822Z,84557.03
2023-03-15T09:30:11.669Z,84576.66
2023-03-15T09:32:41.647Z,84517.00
2023-03-15T09:35:12.744Z,84576.03
2023-03-15T09:37:40.036Z,84569.25
2023-03-15T09:40:08.807Z,84534.19
2023-03-15T09:43:09.025Z,84457.06
2023-03-15T09:46:04.036Z,84522.16
2023-03-15T09:48:54.941Z,84587.25
2023-03-15T09:51:40.287Z,84592.31
2023-03-15T09:54:19.485Z,84581.34
2023-03-15T09:56:56.408Z,84580.63
2023-03-15T09:59:30.100Z,84520.09
2023-03-15T10:02:01.419Z,84569.84
2023-03-15T10:04:31.914Z,84574.53
2023-03-15T10:07:04.197Z,84530.34
2023-03-15T10:09:36.540Z,84571.78
2023-03-15T10:12:10.693Z,84521.69
2023-03-15T10:14:40.986Z,84568.56
2023-03-15T10:17:19.390Z,84517.53
2023-03-15T10:19:52.066Z,84567.16
2023-03-15T10:22:35.817Z,84541.75
2023-03-15T10:25:23.542Z,84574.91
2023-03-15T10:28:11.081Z,84543.28
2023-03-15T10:30:40.184Z,84574.91
2023-03-15T10:33:36.258Z,84563.78
2023-03-15T10:36:31.823Z,84560.53
2023-03-15T10:38:58.981Z,84519.63
2023-03-15T10:41:39.074Z,84563.66
2023-03-15T10:44:13.834Z,84547.56
2023-03-15T10:46:41.133Z,84529.97
2023-03-15T10:49:16.970Z,84569.09
2023-03-15T10:51:46.804Z,84549.88
2023-03-15T10:54:20.417Z,84566.19
2023-03-15T10:56:57.332Z,84526.72
2023-03-15T10:59:26.987Z,84504.66
2023-03-15T11:02:08.217Z,84541.63
2023-03-15T11:04:41.321Z,84531.41
2023-03-15T11:07:08.698Z,84555.53
2023-03-15T11:09:45.913Z,84556.88
2023-03-15T11:12:24.301Z,84475.69
2023-03-15T11:15:14.344Z,84566.41
2023-03-15T11:17:48.009Z,84536.88
2023-03-15T11:20:31.592Z,84543.38
2023-03-15T11:23:00.977Z,84511.34
2023-03-15T11:25:32.100Z,84538.38
2023-03-15T11:28:01.720Z,84524.09
2023-03-15T11:30:32.567Z,84530.38
2023-03-15T11:33:05.926Z,84554.69
2023-03-15T11:35:39.068Z,84578.28
2023-03-15T11:38:17.453Z,84591.38
2023-03-15T11:40:49.047Z,84591.44
2023-03-15T11:43:19.694Z,84497.63
2023-03-15T11:46:03.776Z,84563.56
2023-03-15T11:48:44.536Z,84487.91
2023-03-15T11:51:13.025Z,84576.09
2023-03-15T11:53:55.663Z,84577.00
2023-03-15T11:56:29.270Z,84522.28
2023-03-15T11:59:05.224Z,84574.25
2023-03-15T12:01:34.764Z,84456.06
2023-03-15T12:04:26.365Z,84561.91
2023-03-15T12:07:00.538Z,84444.81
2023-03-15T12:09:33.755Z,84569.00
2023-03-15T12:12:05.084Z,84559.41
2023-03-15T12:14:37.753Z,84471.66
2023-03-15T12:17:29.140Z,84549.69
2023-03-15T12:20:01.094Z,84476.03
2023-03-15T12:22:34.011Z,84501.41
2023-03-15T12:25:14.828Z,84542.19
2023-03-15T12:27:50.095Z,84464.41
2023-03-15T12:30:33.799Z,84497.75
2023-03-15T12:33:03.609Z,84502.00
2023-03-15T12:35:41.997Z,84510.38
2023-03-15T12:38:23.209Z,84519.63
2023-03-15T12:40:58.361Z,84477.72
2023-03-15T12:43:44.773Z,84537.88
2023-03-15T12:46:36.966Z,84541.66
2023-03-15T12:49:07.099Z,84542.66
2023-03-15T12:52:01.445Z,84528.63
2023-03-15T12:54:40.864Z,84507.25
2023-03-15T12:57:11.702Z,84458.19
2023-03-15T12:59:44.110Z,84456.28
2023-03-15T13:02:23.166Z,84479.97
2023-03-15T13:05:21.508Z,84521.03
2023-03-15T13:08:16.884Z,84526.66
2023-03-15T13:11:11.361Z,84525.16
2023-03-15T13:14:03.275Z,84513.97
2023-03-15T13:16:43.791Z,84504.75
2023-03-15T13:19:16.959Z,84519.38
2023-03-15T13:22:05.369Z,84524.22
2023-03-15T13:25:00.848Z,84450.09
2023-03-15T13:27:46.511Z,84518.06
2023-03-15T13:30:46.762Z,84513.66
2023-03-15T13:33:21.282Z,84520.56
2023-03-15T13:36:16.398Z,84509.09
2023-03-15T13:38:55.535Z,84506.72
2023-03-15T13:41:28.057Z,84506.72
2023-03-15T13:43:58.717Z,84504.16
2023-03-15T13:46:29.826Z,84509.41
2023-03-15T13:48:57.269Z,84500.25
2023-03-15T13:51:31.838Z,84490.69
2023-03-15T13:54:02.043Z,84499.34
2023-03-15T13:56:49.222Z,84493.69
2023-03-15T13:59:18.274Z,84491.59
2023-03-15T14:01:45.766Z,84464.28
2023-03-15T14:04:17.639Z,84474.50
2023-03-15T14:06:49.780Z,84443.81
2023-03-15T14:09:26.066Z,84492.06
2023-03-15T14:12:05.322Z,84495.34
2023-03-15T14:14:36.201Z,84465.72
2023-03-15T14:17:17.983Z,84480.09
2023-03-15T14:19:54.392Z,84450.84
2023-03-15T14:22:21.938Z,84391.28
2023-03-15T14:24:53.203Z,84358.59
2023-03-15T14:27:21.549Z,84483.78
2023-03-15T14:30:00.089Z,84480.16
2023-03-15T14:32:39.050Z,84474.94
2023-03-15T14:35:22.329Z,84447.19
2023-03-15T14:38:15.716Z,84387.56
2023-03-15T14:40:42.850Z,84472.91
2023-03-15T14:43:12.170Z,84409.28
2023-03-15T14:45:42.430Z,84417.03
2023-03-15T14:48:15.879Z,84413.59
2023-03-15T14:50:45.965Z,84451.75
2023-03-15T14:53:21.017Z,84481.53
2023-03-15T14:55:49.827Z,84477.91
2023-03-15T14:58:21.712Z,84395.13
2023-03-15T15:00:51.171Z,84481.84
2023-03-15T15:03:24.364Z,84445.44
2023-03-15T15:05:52.080Z,84413.13
2023-03-15T15:08:24.270Z,84487.16
2023-03-15T15:10:55.559Z,84485.50
2023-03-15T15:13:28.269Z,84432.25
2023-03-15T15:15:56.996Z,84442.47
2023-03-15T15:18:26.883Z,84412.56
2023-03-15T15:20:56.313Z,84461.78
2023-03-15T15:23:27.332Z,84476.25
2023-03-15T15:26:01.852Z,84445.84
2023-03-15T15:28:36.044Z,84430.50
2023-03-15T15:31:05.253Z,84483.31
2023-03-15T15:33:32.589Z,84434.25
2023-03-15T15:36:03.827Z,84413.63
2023-03-15T15:38:38.581Z,84455.69
2023-03-15T15:41:12.378Z,84462.84
2023-03-15T15:43:39.641Z,84478.34
2023-03-15T15:46:08.903Z,84437.19
2023-03-15T15:48:35.984Z,84471.63
2023-03-15T15:51:03.553Z,84470.81
2023-03-15T15:53:33.581Z,84466.09
2023-03-15T15:56:00.995Z,84495.53
2023-03-15T15:58:31.039Z,84445.41
2023-03-15T16:00:58.344Z,84475.03
2023-03-15T16:03:26.132Z,84450.56
2023-03-15T16:05:53.334Z,84454.66
2023-03-15T16:08:24.206Z,84497.06
2023-03-15T16:10:51.694Z,84437.63
2023-03-15T16:13:18.957Z,84511.34
2023-03-15T16:15:46.253Z,84437.66
2023-03-15T16:18:13.553Z,84518.91
2023-03-15T16:20:46.746Z,84493.94
2023-03-15T16:23:24.472Z,84498.00
2023-03-15T16:25:55.667Z,84474.97
2023-03-15T16:28:24.087Z,84465.84
2023-03-15T16:30:51.523Z,84498.84
2023-03-15T16:33:21.350Z,84552.47
2023-03-15T16:35:50.535Z,84537.25
2023-03-15T16:38:26.270Z,84542.19
2023-03-15T16:40:53.553Z,84514.69
2023-03-15T16:43:21.055Z,84513.38
2023-03-15T16:45:48.852Z,84520.88
2023-03-15T16:48:15.959Z,84549.91
2023-03-15T16:50:44.547Z,84486.38
2023-03-15T16:53:13.770Z,84510.22
2023-03-15T16:55:41.050Z,84543.25
2023-03-15T16:58:19.592Z,84524.63
2023-03-15T17:00:48.459Z,84558.47
2023-03-15T17:03:16.961Z,84543.91
2023-03-15T17:05:46.553Z,84521.19
2023-03-15T17:08:18.920Z,84558.53
2023-03-15T17:10:46.322Z,84523.91
2023-03-15T17:13:15.688Z,84569.03
2023-03-15T17:15:42.890Z,84560.81
2023-03-15T17:18:18.706Z,84562.63
2023-03-15T17:20:49.541Z,84546.91
2023-03-15T17:23:18.022Z,84532.53
2023-03-15T17:25:45.156Z,84580.09
2023-03-15T17:28:12.400Z,84577.19
2023-03-15T17:30:39.377Z,84574.38
2023-03-15T17:33:07.114Z,84579.91
2023-03-15T17:35:38.024Z,84542.00
2023-03-15T17:38:07.254Z,84568.16
2023-03-15T17:40:36.518Z,84550.50
2023-03-15T17:43:13.991Z,84542.97
2023-03-15T17:45:41.986Z,84504.81
2023-03-15T17:48:09.052Z,84569.63
2023-03-15T17:50:36.643Z,84558.81
2023-03-15T17:53:15.038Z,84520.97
2023-03-15T17:55:42.277Z,84553.69
2023-03-15T17:58:18.206Z,84580.50
2023-03-15T18:00:45.811Z,84569.91
2023-03-15T18:03:14.376Z,84586.94
2023-03-15T18:05:41.852Z,84596.38
2023-03-15T18:08:21.207Z,84586.75
2023-03-15T18:10:50.055Z,84589.72
2023-03-15T18:13:19.698Z,84551.50
2023-03-15T18:15:47.708Z,84498.66
2023-03-15T18:18:15.096Z,84574.72
2023-03-15T18:20:42.579Z,84565.28
2023-03-15T18:23:14.248Z,84572.88
2023-03-15T18:25:41.835Z,84550.13
2023-03-15T18:28:08.878Z,84552.31
2023-03-15T18:30:35.843Z,84600.94
2023-03-15T18:33:04.362Z,84584.31
2023-03-15T18:35:36.094Z,84557.72
2023-03-15T18:38:04.506Z,84585.22
2023-03-15T18:40:33.871Z,84550.34
2023-03-15T18:43:01.637Z,84563.34
2023-03-15T18:45:31.508Z,84597.09
2023-03-15T18:48:00.066Z,84597.16
2023-03-15T18:50:28.639Z,84573.59
2023-03-15T18:52:56.082Z,84595.16
2023-03-15T18:55:24.215Z,84564.41
2023-03-15T18:57:53.885Z,84547.22
2023-03-15T19:00:27.502Z,84589.94
2023-03-15T19:02:56.761Z,84577.72
2023-03-15T19:05:25.090Z,84604.16
2023-03-15T19:07:52.260Z,84614.50
2023-03-15T19:10:20.800Z,84570.94
2023-03-15T19:12:48.627Z,84569.81
2023-03-15T19:15:18.026Z,84598.72
2023-03-15T19:17:47.014Z,84575.47
2023-03-15T19:20:16.601Z,84567.63
2023-03-15T19:22:45.252Z,84530.84
2023-03-15T19:25:14.047Z,84463.19
2023-03-15T19:27:47.651Z,84595.16
2023-03-15T19:30:18.285Z,84592.34
2023-03-15T19:32:47.097Z,84598.53
2023-03-15T19:35:14.576Z,84586.53
2023-03-15T19:37:44.529Z,84583.69
2023-03-15T19:40:13.202Z,84578.88
2023-03-15T19:42:40.238Z,84585.09
2023-03-15T19:45:08.295Z,84572.75
2023-03-15T19:47:35.585Z,84604.59
2023-03-15T19:50:03.234Z,84559.22
2023-03-15T19:52:33.263Z,84587.63
2023-03-15T19:55:04.313Z,84599.72
2023-03-15T19:57:31.310Z,84575.59
2023-03-15T19:59:58.262Z,84581.06
2023-03-15T20:02:25.285Z,84553.75
2023-03-15T20:04:52.220Z,84606.66
2023-03-15T20:07:19.260Z,84522.94
2023-03-15T20:09:46.327Z,84541.78
2023-03-15T20:12:13.739Z,84608.16
2023-03-15T20:14:41.027Z,84586.53
2023-03-15T20:17:08.124Z,84608.41
2023-03-15T20:19:36.184Z,84580.22
2023-03-15T20:22:03.667Z,84569.31
2023-03-15T20:24:30.837Z,84590.91
2023-03-15T20:26:57.895Z,84544.34
2023-03-15T20:29:24.954Z,84601.69
2023-03-15T20:31:53.500Z,84579.63
2023-03-15T20:34:22.193Z,84566.81
2023-03-15T20:36:49.337Z,84558.78
2023-03-15T20:39:18.564Z,84547.28
2023-03-15T20:41:45.563Z,84591.09
2023-03-15T20:44:12.947Z,84583.09
2023-03-15T20:46:40.241Z,84585.56
2023-03-15T20:49:07.317Z,84537.97
2023-03-15T20:51:34.613Z,84596.66
2023-03-15T20:54:01.846Z,84541.88
2023-03-15T20:56:28.950Z,84555.91
2023-03-15T20:58:56.181Z,84566.97
2023-03-15T21:01:23.168Z,84601.97
2023-03-15T21:03:50.470Z,84561.03
2023-03-15T21:06:17.641Z,84578.53
2023-03-15T21:08:46.146Z,84606.78
2023-03-15T21:11:13.310Z,84577.63
2023-03-15T21:13:40.370Z,84614.34
2023-03-15T21:16:07.400Z,84619.66
2023-03-15T21:18:36.144Z,84573.53
2023-03-15T21:21:08.002Z,84616.06
2023-03-15T21:23:40.026Z,84620.63
2023-03-15T21:26:09.868Z,84585.38
2023-03-15T21:28:37.608Z,84592.28
2023-03-15T21:31:05.875Z,84622.22
2023-03-15T21:33:34.084Z,84631.81
2023-03-15T21:36:01.890Z,84606.63
2023-03-15T21:38:31.591Z,84603.56
2023-03-15T21:40:59.942Z,84587.16
2023-03-15T21:43:29.459Z,84640.06
2023-03-15T21:46:12.038Z,84584.41
2023-03-15T21:48:39.306Z,84640.84
2023-03-15T21:51:08.623Z,84634.66
2023-03-15T21:53:36.918Z,84619.19
2023-03-15T21:56:05.265Z,84636.91
2023-03-15T21:58:32.612Z,84622.03
2023-03-15T22:01:05.694Z,84609.72
2023-03-15T22:03:34.497Z,84637.97
2023-03-15T22:06:02.073Z,84639.44
2023-03-15T22:08:29.047Z,84611.66
2023-03-15T22:10:58.375Z,84644.84
2023-03-15T22:13:26.269Z,84641.56
2023-03-15T22:15:53.653Z,84603.56
2023-03-15T22:18:21.245Z,84651.31
2023-03-15T22:20:50.213Z,84644.44
2023-03-15T22:23:18.431Z,84603.72
2023-03-15T22:25:45.902Z,84613.22
2023-03-15T22:28:13.554Z,84605.03
2023-03-15T22:30:41.268Z,84629.41
2023-03-15T22:33:08.844Z,84651.16
2023-03-15T22:35:36.009Z,84621.13
2023-03-15T22:38:10.200Z,84595.16
2023-03-15T22:40:39.508Z,84640.78
2023-03-15T22:43:08.141Z,84638.69
2023-03-15T22:45:35.700Z,84618.47
2023-03-15T22:48:02.974Z,84640.16
2023-03-15T22:50:29.963Z,84634.72
2023-03-15T22:52:57.148Z,84628.84
2023-03-15T22:55:25.003Z,84603.69
2023-03-15T22:57:52.142Z,84632.97
2023-03-15T23:00:22.109Z,84645.91
2023-03-15T23:02:49.479Z,84620.81
2023-03-15T23:05:18.082Z,84665.59
2023-03-15T23:07:45.624Z,84602.72
2023-03-15T23:10:13.185Z,84658.25
2023-03-15T23:12:40.229Z,84668.81
2023-03-15T23:15:07.945Z,84671.56
2023-03-15T23:17:35.088Z,84661.47
2023-03-15T23:20:02.180Z,84658.22
2023-03-15T23:22:30.042Z,84666.84
2023-03-15T23:24:58.350Z,84670.28
2023-03-15T23:27:26.262Z,84673.09
2023-03-15T23:29:55.077Z,84669.59
2023-03-15T23:32:25.146Z,84641.88
2023-03-15T23:34:53.911Z,84629.59
2023-03-15T23:37:21.337Z,84668.19
2023-03-15T23:39:48.472Z,84640.56
2023-03-15T23:42:15.611Z,84645.91
2023-03-15T23:44:43.460Z,84626.88
2023-03-15T23:47:10.872Z,84672.97
2023-03-15T23:49:37.896Z,84672.31
2023-03-15T23:52:05.943Z,84682.56
2023-03-15T23:54:39.880Z,84660.94
2023-03-15T23:57:09.473Z,84660.91
2023-03-15T23:59:37.109Z,84651.31
